createdAt,value
2023-05-26T00:03:37.495Z,97.29
2023-05-26T00:08:31.120Z,97.34
2023-05-26T00:13:25.649Z,96.99
2023-05-26T00:18:21.962Z,97.17
2023-05-26T00:23:15.354Z,96.97
2023-05-26T00:28:08.526Z,97.69
2023-05-26T00:33:03.704Z,97.15
2023-05-26T00:37:57.247Z,97.15
2023-05-26T00:42:50.601Z,97.10
2023-05-26T00:47:43.866Z,97.69
2023-05-26T00:52:38.869Z,97.62
2023-05-26T00:57:32.349Z,97.40
2023-05-26T01:02:26.776Z,98.42
2023-05-26T01:07:20.164Z,98.24
2023-05-26T01:12:22.623Z,98.89
2023-05-26T01:17:22.501Z,99.21
2023-05-26T01:22:25.221Z,98.99
2023-05-26T01:27:34.481Z,99.43
2023-05-26T01:32:29.590Z,99.47
2023-05-26T01:37:22.824Z,98.92
2023-05-26T01:42:30.665Z,99.12
2023-05-26T01:47:26.709Z,98.97
2023-05-26T01:52:22.870Z,99.10
2023-05-26T01:57:17.872Z,99.22
2023-05-26T02:02:11.267Z,99.77
2023-05-26T02:07:08.368Z,99.87
2023-05-26T02:12:04.326Z,99.75
2023-05-26T02:16:57.847Z,100.00
2023-05-26T02:21:51.198Z,100.00
2023-05-26T02:26:46.002Z,100.00
2023-05-26T02:31:43.296Z,100.00
2023-05-26T02:36:37.321Z,100.00
2023-05-26T02:41:30.712Z,99.91
2023-05-26T02:46:24.020Z,100.00
2023-05-26T02:51:18.858Z,100.00
2023-05-26T02:56:12.056Z,100.00
2023-05-26T03:01:05.793Z,100.00
2023-05-26T03:06:00.019Z,100.00
2023-05-26T03:11:10.567Z,100.00
2023-05-26T03:16:07.387Z,100.00
2023-05-26T03:21:00.665Z,100.00
2023-05-26T03:25:55.867Z,100.00
2023-05-26T03:30:50.812Z,100.00
2023-05-26T03:35:44.184Z,100.00
2023-05-26T03:40:37.775Z,100.00
2023-05-26T03:45:33.720Z,100.00
2023-05-26T03:50:27.824Z,99.78
2023-05-26T03:55:21.488Z,98.39
2023-05-26T04:00:17.456Z,97.65
2023-05-26T04:05:12.188Z,97.90
2023-05-26T04:10:07.043Z,96.69
2023-05-26T04:15:00.222Z,96.18
2023-05-26T04:19:54.051Z,97.96
2023-05-26T04:24:48.872Z,96.57
2023-05-26T04:29:49.723Z,97.33
2023-05-26T04:35:09.641Z,94.91
2023-05-26T04:40:08.442Z,94.11
2023-05-26T04:45:01.864Z,94.44
2023-05-26T04:49:56.903Z,93.58
2023-05-26T04:54:52.984Z,93.83
2023-05-26T04:59:48.532Z,94.76
2023-05-26T05:04:46.835Z,95.51
2023-05-26T05:09:40.199Z,94.15
2023-05-26T05:14:34.152Z,92.99
2023-05-26T05:19:28.919Z,94.48
2023-05-26T05:24:22.179Z,93.53
2023-05-26T05:29:16.673Z,92.74
2023-05-26T05:34:14.811Z,92.38
2023-05-26T05:39:11.370Z,91.65
2023-05-26T05:44:06.334Z,88.88
2023-05-26T05:48:59.633Z,87.25
2023-05-26T05:54:00.330Z,87.70
2023-05-26T05:58:56.822Z,88.76
2023-05-26T06:03:50.591Z,87.39
2023-05-26T06:08:45.946Z,85.84
2023-05-26T06:13:39.878Z,84.52
2023-05-26T06:18:34.997Z,82.99
2023-05-26T06:23:30.268Z,84.90
2023-05-26T06:28:24.097Z,85.63
2023-05-26T06:33:17.481Z,81.26
2023-05-26T06:38:12.292Z,79.07
2023-05-26T06:43:05.591Z,79.03
2023-05-26T06:47:59.357Z,77.00
2023-05-26T06:52:53.417Z,76.23
2023-05-26T07:02:44.544Z,77.74
2023-05-26T07:07:51.213Z,76.24
2023-05-26T07:12:44.753Z,77.10
2023-05-26T07:17:53.698Z,75.36
2023-05-26T07:22:47.365Z,73.58
2023-05-26T07:27:49.793Z,70.30
2023-05-26T07:32:43.277Z,71.70
2023-05-26T07:37:41.482Z,71.25
2023-05-26T07:42:35.657Z,72.01
2023-05-26T07:47:32.567Z,68.81
2023-05-26T07:52:26.208Z,69.05
2023-05-26T07:57:29.407Z,67.03
2023-05-26T08:02:23.488Z,65.47
2023-05-26T08:07:24.382Z,62.60
2023-05-26T08:12:17.789Z,61.89
2023-05-26T08:17:12.414Z,61.24
2023-05-26T08:22:06.658Z,61.52
2023-05-26T08:26:59.890Z,59.52
2023-05-26T08:31:53.300Z,55.11
2023-05-26T08:36:48.076Z,53.20
2023-05-26T08:41:49.520Z,54.01
2023-05-26T08:46:42.868Z,51.92
2023-05-26T08:51:38.570Z,50.81
2023-05-26T08:56:35.262Z,49.51
2023-05-26T09:01:28.687Z,49.12
2023-05-26T09:06:22.563Z,46.99
2023-05-26T09:11:23.787Z,46.95
2023-05-26T09:16:18.481Z,43.36
2023-05-26T09:21:11.635Z,42.40
2023-05-26T09:26:08.551Z,43.98
2023-05-26T09:31:01.706Z,42.88
2023-05-26T09:35:56.271Z,41.35
2023-05-26T09:40:50.905Z,40.63
2023-05-26T09:45:44.175Z,40.25
2023-05-26T09:50:38.978Z,38.64
2023-05-26T09:55:33.758Z,38.62
2023-05-26T10:00:27.947Z,37.06
2023-05-26T10:05:23.622Z,38.24
2023-05-26T10:10:18.295Z,36.76
2023-05-26T10:15:13.308Z,33.53
2023-05-26T10:20:08.346Z,34.28
2023-05-26T10:25:05.583Z,33.96
2023-05-26T10:30:06.285Z,33.30
2023-05-26T10:35:00.886Z,33.69
2023-05-26T10:39:54.319Z,31.92
2023-05-26T10:44:50.136Z,31.94
2023-05-26T10:49:43.825Z,31.87
2023-05-26T10:54:38.388Z,30.75
2023-05-26T10:59:33.237Z,30.81
2023-05-26T11:04:42.069Z,29.83
2023-05-26T11:09:35.222Z,29.41
2023-05-26T11:14:31.384Z,31.50
2023-05-26T11:19:33.737Z,33.27
2023-05-26T11:24:27.887Z,34.85
2023-05-26T11:29:24.196Z,36.55
2023-05-26T11:34:18.909Z,37.63
2023-05-26T11:39:12.104Z,38.07
2023-05-26T11:44:09.568Z,39.42
2023-05-26T11:49:02.838Z,40.06
2023-05-26T11:53:58.630Z,41.31
2023-05-26T11:58:56.823Z,36.87
2023-05-26T12:03:52.848Z,31.95
2023-05-26T12:08:53.477Z,27.51
2023-05-26T12:13:52.608Z,27.50
2023-05-26T12:18:46.095Z,27.14
2023-05-26T12:23:39.889Z,29.46
2023-05-26T12:28:32.989Z,28.51
2023-05-26T12:33:29.347Z,27.56
2023-05-26T12:38:23.186Z,27.22
2023-05-26T12:43:17.808Z,26.49
2023-05-26T12:48:11.227Z,26.33
2023-05-26T12:53:05.942Z,24.86
2023-05-26T12:57:59.216Z,24.83
2023-05-26T13:02:52.509Z,24.29
2023-05-26T13:07:45.863Z,24.37
2023-05-26T13:12:42.685Z,24.02
2023-05-26T13:17:36.220Z,23.52
2023-05-26T13:22:29.537Z,22.70
2023-05-26T13:27:22.745Z,23.28
2023-05-26T13:32:17.832Z,23.99
2023-05-26T13:37:11.093Z,23.68
2023-05-26T13:42:04.997Z,23.83
2023-05-26T13:46:58.322Z,23.64
2023-05-26T13:51:53.013Z,23.50
2023-05-26T13:56:46.804Z,23.54
2023-05-26T14:01:40.991Z,22.43
2023-05-26T14:06:37.470Z,22.87
2023-05-26T14:11:32.789Z,23.01
2023-05-26T14:16:26.039Z,24.23
2023-05-26T14:21:42.669Z,26.48
2023-05-26T14:26:33.910Z,27.24
2023-05-26T14:31:27.148Z,28.72
2023-05-26T14:36:20.392Z,30.83
2023-05-26T14:41:13.600Z,31.48
2023-05-26T14:46:08.607Z,31.91
2023-05-26T14:51:02.685Z,32.45
2023-05-26T14:55:56.167Z,33.55
2023-05-26T15:00:49.352Z,33.32
2023-05-26T15:05:44.039Z,34.11
2023-05-26T15:10:37.317Z,33.84
2023-05-26T15:15:32.602Z,35.11
2023-05-26T15:20:26.761Z,34.36
2023-05-26T15:25:21.523Z,34.99
2023-05-26T15:35:13.391Z,35.15
2023-05-26T15:40:08.472Z,35.62
2023-05-26T15:45:05.849Z,36.69
2023-05-26T15:49:58.991Z,35.12
2023-05-26T15:54:52.239Z,35.26
2023-05-26T15:59:45.593Z,35.51
2023-05-26T16:04:40.327Z,35.79
2023-05-26T16:09:33.625Z,36.49
2023-05-26T16:14:26.871Z,38.39
2023-05-26T16:19:20.047Z,39.57
2023-05-26T16:24:14.616Z,37.72
2023-05-26T16:29:07.798Z,41.52
2023-05-26T16:34:01.088Z,44.13
2023-05-26T16:38:54.499Z,44.10
2023-05-26T16:43:49.417Z,45.45
2023-05-26T16:48:42.823Z,46.35
2023-05-26T16:53:36.074Z,47.47
2023-05-26T16:58:29.344Z,49.87
2023-05-26T17:03:24.002Z,51.60
2023-05-26T17:08:17.348Z,52.74
2023-05-26T17:13:10.885Z,54.00
2023-05-26T17:18:04.834Z,53.94
2023-05-26T17:22:59.586Z,53.96
2023-05-26T17:27:52.821Z,54.53
2023-05-26T17:32:46.131Z,54.57
2023-05-26T17:37:39.298Z,56.10
2023-05-26T17:42:34.153Z,56.06
2023-05-26T17:47:28.047Z,55.66
2023-05-26T17:52:21.918Z,54.40
2023-05-26T17:57:15.161Z,53.80
2023-05-26T18:02:10.551Z,54.08
2023-05-26T18:07:03.829Z,54.40
2023-05-26T18:11:57.017Z,55.30
2023-05-26T18:16:50.346Z,55.31
2023-05-26T18:21:45.017Z,55.19
2023-05-26T18:26:38.193Z,56.30
2023-05-26T18:31:31.881Z,56.36
2023-05-26T18:36:25.061Z,56.56
2023-05-26T18:41:20.027Z,56.84
2023-05-26T18:46:13.586Z,57.77
2023-05-26T18:51:07.585Z,58.69
2023-05-26T18:56:01.068Z,58.50
2023-05-26T19:00:56.213Z,59.53
2023-05-26T19:05:52.134Z,59.07
2023-05-26T19:10:45.362Z,62.16
2023-05-26T19:15:38.551Z,63.26
2023-05-26T19:20:33.415Z,64.56
2023-05-26T19:25:28.236Z,68.48
2023-05-26T19:30:22.006Z,69.23
2023-05-26T19:35:16.094Z,73.41
2023-05-26T19:40:11.436Z,77.23
2023-05-26T19:45:05.131Z,80.44
2023-05-26T19:49:59.356Z,80.15
2023-05-26T19:54:52.550Z,81.30
2023-05-26T19:59:47.183Z,82.40
2023-05-26T20:04:40.384Z,84.50
2023-05-26T20:09:34.253Z,82.46
2023-05-26T20:14:27.455Z,81.54
2023-05-26T20:19:22.204Z,80.75
2023-05-26T20:24:15.601Z,80.76
2023-05-26T20:29:08.784Z,79.56
2023-05-26T20:34:01.909Z,81.77
2023-05-26T20:38:56.773Z,82.29
2023-05-26T20:43:50.031Z,83.45
2023-05-26T20:48:44.407Z,86.29
2023-05-26T20:53:37.743Z,88.82
2023-05-26T20:58:32.268Z,90.45
2023-05-26T21:03:25.901Z,91.25
2023-05-26T21:08:19.257Z,93.24
2023-05-26T21:13:12.450Z,96.57
2023-05-26T21:18:07.134Z,97.44
2023-05-26T21:23:00.289Z,98.08
2023-05-26T21:27:53.638Z,99.41
2023-05-26T21:32:46.955Z,100.00
2023-05-26T21:37:41.583Z,100.00
2023-05-26T21:42:34.723Z,100.00
2023-05-26T21:47:27.925Z,100.00
2023-05-26T21:52:21.141Z,100.00
2023-05-26T21:57:15.812Z,100.00
2023-05-26T22:02:09.200Z,100.00
2023-05-26T22:07:02.383Z,100.00
2023-05-26T22:11:55.819Z,100.00
2023-05-26T22:16:50.463Z,100.00
2023-05-26T22:21:43.605Z,100.00
2023-05-26T22:26:36.784Z,100.00
2023-05-26T22:31:29.962Z,100.00
2023-05-26T22:36:24.511Z,100.00
2023-05-26T22:41:17.776Z,100.00
2023-05-26T22:46:11.082Z,100.00
2023-05-26T22:51:04.563Z,100.00
2023-05-26T22:56:04.836Z,100.00
2023-05-26T23:01:05.834Z,100.00
2023-05-26T23:05:59.235Z,100.00
2023-05-26T23:10:52.615Z,100.00
2023-05-26T23:15:47.092Z,100.00
2023-05-26T23:20:40.292Z,100.00
2023-05-26T23:25:33.585Z,100.00
2023-05-26T23:30:27.877Z,100.00
2023-05-26T23:35:22.393Z,100.00
2023-05-26T23:40:15.596Z,100.00
2023-05-26T23:45:10.023Z,100.00
2023-05-26T23:50:03.636Z,100.00
2023-05-26T23:54:58.195Z,100.00
2023-05-26T23:59:51.392Z,100.00
